Time;durP1;ratioP1;P1;durP2;ratioP2;P2;SDS_P1;SDS_P2;PMS_P1;PMS_P2;Temp;Humidity;BMP_temperature;BMP_pressure;BME280_temperature;BME280_humidity;BME280_pressure;Samples;Min_cycle;Max_cycle;Signal;HPM_P1;HPM_P2
2023/10/21 00:02:22;;;;;;;29.77;17.85;;;;;;;;;;5140558;27;20051;-84
2023/10/21 00:04:48;;;;;;;36.50;20.30;;;;;;;;;;5157304;27;20043;-84
2023/10/21 00:07:14;;;;;;;24.08;16.75;;;;;;;;;;5158037;27;20047;-84
2023/10/21 00:09:40;;;;;;;45.42;19.02;;;;;;;;;;5156863;27;20045;-84
2023/10/21 00:12:06;;;;;;;38.58;20.45;;;;;;;;;;5139955;27;20148;-84
2023/10/21 00:14:34;;;;;;;29.08;17.83;;;;;;;;;;5140151;27;20046;-83
2023/10/21 00:17:00;;;;;;;32.00;17.27;;;;;;;;;;5158845;27;20107;-84
2023/10/21 00:19:26;;;;;;;29.23;17.17;;;;;;;;;;5139861;27;20135;-84
2023/10/21 00:21:53;;;;;;;29.88;18.25;;;;;;;;;;5139732;27;20042;-83
2023/10/21 00:24:20;;;;;;;29.27;18.55;;;;;;;;;;5157890;27;20059;-84
2023/10/21 00:26:49;;;;;;;23.75;15.80;;;;;;;;;;5156699;27;20049;-84
2023/10/21 00:29:16;;;;;;;30.00;17.17;;;;;;;;;;5123170;27;20046;-84
2023/10/21 00:31:43;;;;;;;29.45;15.88;;;;;;;;;;5156529;27;20487;-83
2023/10/21 00:34:09;;;;;;;30.42;16.40;;;;;;;;;;5156581;27;20091;-84
2023/10/21 00:36:35;;;;;;;20.52;13.40;;;;;;;;;;5156733;27;20501;-84
2023/10/21 00:39:02;;;;;;;26.65;14.73;;;;;;;;;;5157431;27;20038;-83
2023/10/21 00:41:28;;;;;;;26.67;14.57;;;;;;;;;;5156368;27;20046;-83
2023/10/21 00:43:54;;;;;;;24.15;14.85;;;;;;;;;;5139345;27;20046;-85
2023/10/21 00:46:22;;;;;;;28.52;14.93;;;;;;;;;;5139126;27;20047;-84
2023/10/21 00:48:49;;;;;;;26.33;14.43;;;;;;;;;;5156377;27;20490;-83
2023/10/21 00:51:16;;;;;;;20.42;12.18;;;;;;;;;;5138327;27;20058;-84
2023/10/21 00:53:42;;;;;;;20.70;12.50;;;;;;;;;;5156450;27;20406;-83
2023/10/21 00:56:09;;;;;;;20.75;13.07;;;;;;;;;;5156138;27;20039;-83
2023/10/21 00:58:35;;;;;;;25.20;13.20;;;;;;;;;;5156083;27;20434;-83
2023/10/21 01:01:02;;;;;;;28.20;13.98;;;;;;;;;;5139045;27;20501;-83
2023/10/21 01:03:29;;;;;;;18.85;12.43;;;;;;;;;;5156434;27;20042;-83
2023/10/21 01:05:56;;;;;;;24.58;13.68;;;;;;;;;;5156517;27;20054;-84
2023/10/21 01:08:22;;;;;;;22.67;12.65;;;;;;;;;;5121837;27;20102;-83
2023/10/21 01:10:48;;;;;;;22.98;13.00;;;;;;;;;;5155666;27;20050;-84
2023/10/21 01:13:14;;;;;;;21.02;13.13;;;;;;;;;;5155929;27;20506;-83
2023/10/21 01:15:40;;;;;;;16.60;12.88;;;;;;;;;;5155755;27;20479;-83
2023/10/21 01:18:06;;;;;;;27.35;13.95;;;;;;;;;;5156474;27;20039;-84
2023/10/21 01:20:33;;;;;;;21.58;13.30;;;;;;;;;;5138213;27;20103;-83
2023/10/21 01:22:59;;;;;;;25.00;13.82;;;;;;;;;;5155751;27;20058;-83
2023/10/21 01:25:25;;;;;;;30.63;14.77;;;;;;;;;;5155453;27;20443;-83
2023/10/21 01:27:53;;;;;;;18.45;12.45;;;;;;;;;;5155029;27;20054;-84
2023/10/21 01:30:20;;;;;;;21.88;12.80;;;;;;;;;;5122134;27;20390;-84
2023/10/21 01:32:47;;;;;;;17.85;11.82;;;;;;;;;;5120997;27;20401;-83
2023/10/21 01:35:13;;;;;;;18.13;12.18;;;;;;;;;;5155552;27;20101;-83
2023/10/21 01:37:40;;;;;;;15.18;12.05;;;;;;;;;;5138241;27;20057;-84
2023/10/21 01:40:06;;;;;;;21.25;12.82;;;;;;;;;;5137891;27;20046;-84
2023/10/21 01:42:34;;;;;;;17.25;11.65;;;;;;;;;;5154922;27;20529;-84
2023/10/21 01:45:00;;;;;;;23.52;12.93;;;;;;;;;;5121201;27;20051;-83
2023/10/21 01:47:26;;;;;;;23.27;13.18;;;;;;;;;;5155304;27;20128;-84
2023/10/21 01:49:53;;;;;;;19.55;12.35;;;;;;;;;;5137775;27;20051;-83
2023/10/21 01:52:19;;;;;;;27.25;13.73;;;;;;;;;;5155242;27;20398;-83
2023/10/21 01:54:45;;;;;;;24.70;13.38;;;;;;;;;;5155002;27;20050;-83
2023/10/21 01:57:12;;;;;;;18.92;11.70;;;;;;;;;;5137842;27;20491;-83
2023/10/21 01:59:41;;;;;;;20.00;12.43;;;;;;;;;;5154927;27;20118;-83
2023/10/21 02:02:07;;;;;;;19.83;11.48;;;;;;;;;;5138542;27;20073;-83
2023/10/21 02:04:33;;;;;;;31.20;15.20;;;;;;;;;;5154793;27;20131;-83
2023/10/21 02:06:59;;;;;;;20.48;12.73;;;;;;;;;;5156408;27;20463;-83
2023/10/21 02:09:25;;;;;;;69.63;15.80;;;;;;;;;;5137503;27;20448;-84
2023/10/21 02:11:55;;;;;;;21.60;12.82;;;;;;;;;;5154555;27;20043;-83
2023/10/21 02:14:22;;;;;;;19.73;14.75;;;;;;;;;;5137500;27;20043;-83
2023/10/21 02:16:54;;;;;;;26.42;16.20;;;;;;;;;;5155063;27;20043;-83
2023/10/21 02:19:20;;;;;;;31.17;17.17;;;;;;;;;;5154610;27;20038;-83
2023/10/21 02:21:49;;;;;;;31.90;17.02;;;;;;;;;;5155608;27;20043;-84
2023/10/21 02:24:15;;;;;;;30.05;16.88;;;;;;;;;;5154672;27;20046;-83
2023/10/21 02:26:41;;;;;;;32.70;16.67;;;;;;;;;;5137501;27;20050;-83
2023/10/21 02:29:07;;;;;;;39.90;21.60;;;;;;;;;;5155154;27;20381;-83
2023/10/21 02:31:33;;;;;;;23.42;16.58;;;;;;;;;;5137259;27;20039;-83
2023/10/21 02:33:59;;;;;;;45.97;21.83;;;;;;;;;;5154576;27;20114;-83
2023/10/21 02:36:26;;;;;;;28.02;17.95;;;;;;;;;;5154929;27;20042;-83
2023/10/21 02:38:52;;;;;;;35.05;19.92;;;;;;;;;;5154085;27;20126;-83
2023/10/21 02:41:19;;;;;;;30.50;19.45;;;;;;;;;;5154919;27;20344;-84
2023/10/21 02:43:45;;;;;;;24.05;18.60;;;;;;;;;;5138172;27;20047;-83
2023/10/21 02:46:11;;;;;;;25.95;18.92;;;;;;;;;;5136967;27;20527;-84
2023/10/21 02:48:38;;;;;;;33.10;20.80;;;;;;;;;;5154686;27;20359;-83
2023/10/21 02:51:15;;;;;;;28.15;19.88;;;;;;;;;;5154067;27;20115;-83
2023/10/21 02:53:41;;;;;;;25.40;18.45;;;;;;;;;;5155922;27;20054;-84
2023/10/21 02:56:08;;;;;;;29.48;20.58;;;;;;;;;;5154378;27;20386;-83
2023/10/21 02:58:34;;;;;;;39.25;22.13;;;;;;;;;;5154052;27;20064;-83
2023/10/21 03:01:04;;;;;;;24.20;18.05;;;;;;;;;;5154302;27;20054;-83
2023/10/21 03:03:30;;;;;;;27.52;20.15;;;;;;;;;;5153777;27;20494;-83
2023/10/21 03:05:56;;;;;;;24.55;19.10;;;;;;;;;;5120056;27;20051;-83
2023/10/21 03:08:22;;;;;;;33.30;20.67;;;;;;;;;;5155081;27;20043;-83
2023/10/21 03:10:48;;;;;;;24.30;18.95;;;;;;;;;;5155062;27;20035;-83
2023/10/21 03:13:15;;;;;;;33.13;20.15;;;;;;;;;;5155053;27;20138;-83
2023/10/21 03:15:41;;;;;;;31.15;19.45;;;;;;;;;;5136913;27;20049;-83
2023/10/21 03:18:07;;;;;;;29.25;18.92;;;;;;;;;;5153815;27;20042;-83
2023/10/21 03:20:33;;;;;;;28.25;18.38;;;;;;;;;;5136593;27;20050;-83
2023/10/21 03:22:59;;;;;;;25.25;17.30;;;;;;;;;;5136778;27;20470;-83
2023/10/21 03:25:25;;;;;;;30.13;19.17;;;;;;;;;;5154015;27;20054;-83
2023/10/21 03:27:51;;;;;;;26.88;18.65;;;;;;;;;;5154032;27;20501;-83
2023/10/21 03:30:18;;;;;;;26.10;18.55;;;;;;;;;;5153796;27;20046;-83
2023/10/21 03:32:44;;;;;;;25.42;18.08;;;;;;;;;;5155232;27;20047;-83
2023/10/21 03:35:10;;;;;;;25.30;18.40;;;;;;;;;;5137735;27;20374;-83
2023/10/21 03:37:36;;;;;;;24.77;18.00;;;;;;;;;;5119137;27;20043;-83
2023/10/21 03:40:05;;;;;;;27.50;17.52;;;;;;;;;;5154744;27;20078;-83
2023/10/21 03:42:32;;;;;;;27.08;18.27;;;;;;;;;;5136918;27;20483;-83
2023/10/21 03:44:58;;;;;;;35.30;20.77;;;;;;;;;;5154872;27;20080;-83
2023/10/21 03:47:24;;;;;;;26.83;17.75;;;;;;;;;;5136529;27;20047;-83
2023/10/21 03:49:50;;;;;;;27.33;19.65;;;;;;;;;;5164036;27;20459;-83
2023/10/21 03:52:16;;;;;;;33.58;19.50;;;;;;;;;;5160997;27;20061;-83
2023/10/21 03:54:42;;;;;;;25.77;19.15;;;;;;;;;;5160952;27;20101;-83
2023/10/21 03:57:08;;;;;;;23.25;16.85;;;;;;;;;;5161817;27;20042;-83
2023/10/21 03:59:34;;;;;;;27.70;17.50;;;;;;;;;;5143900;27;20077;-83
2023/10/21 04:02:00;;;;;;;67.03;24.48;;;;;;;;;;5160708;27;20053;-83
2023/10/21 04:04:27;;;;;;;27.05;17.77;;;;;;;;;;5143470;27;20046;-84
2023/10/21 04:06:53;;;;;;;22.42;17.13;;;;;;;;;;5161659;27;20042;-83
2023/10/21 04:09:19;;;;;;;22.63;17.13;;;;;;;;;;5143063;27;20039;-83
2023/10/21 04:11:45;;;;;;;24.25;17.33;;;;;;;;;;5160568;27;20496;-83
2023/10/21 04:14:11;;;;;;;29.35;18.63;;;;;;;;;;5178969;27;20042;-83
2023/10/21 04:16:42;;;;;;;26.40;17.08;;;;;;;;;;5160571;27;20099;-83
2023/10/21 04:19:09;;;;;;;22.70;15.45;;;;;;;;;;5127835;27;20038;-83
2023/10/21 04:21:35;;;;;;;21.77;16.10;;;;;;;;;;5143430;27;20034;-83
2023/10/21 04:24:01;;;;;;;34.20;17.30;;;;;;;;;;5143204;27;20367;-83
2023/10/21 04:26:27;;;;;;;22.98;16.20;;;;;;;;;;5143151;27;20042;-83
2023/10/21 04:28:53;;;;;;;25.98;18.33;;;;;;;;;;5142965;27;20492;-83
2023/10/21 04:31:19;;;;;;;23.85;17.60;;;;;;;;;;5125685;27;20050;-83
2023/10/21 04:33:45;;;;;;;20.25;16.17;;;;;;;;;;5160249;27;20538;-83
2023/10/21 04:36:11;;;;;;;25.73;17.48;;;;;;;;;;5160886;27;20050;-83
2023/10/21 04:38:37;;;;;;;27.67;16.40;;;;;;;;;;5178566;27;20050;-83
2023/10/21 04:41:07;;;;;;;20.58;15.55;;;;;;;;;;5160339;27;20473;-83
2023/10/21 04:43:33;;;;;;;27.13;17.05;;;;;;;;;;5159819;27;20057;-83
2023/10/21 04:45:59;;;;;;;22.02;15.98;;;;;;;;;;5143114;27;20078;-83
2023/10/21 04:48:25;;;;;;;29.40;17.85;;;;;;;;;;5159793;27;20103;-83
2023/10/21 04:50:52;;;;;;;21.83;16.67;;;;;;;;;;5125260;27;20114;-83
2023/10/21 04:53:19;;;;;;;25.23;16.88;;;;;;;;;;5159485;27;20054;-83
2023/10/21 04:55:45;;;;;;;19.40;15.45;;;;;;;;;;5142833;27;20042;-83
2023/10/21 04:58:11;;;;;;;22.48;16.88;;;;;;;;;;5160078;27;20046;-83
2023/10/21 05:00:37;;;;;;;24.40;16.40;;;;;;;;;;5159469;27;20042;-83
2023/10/21 05:03:03;;;;;;;20.23;15.32;;;;;;;;;;5142475;27;20046;-83
2023/10/21 05:05:29;;;;;;;24.00;15.98;;;;;;;;;;5142469;27;20043;-83
2023/10/21 05:07:55;;;;;;;21.00;15.10;;;;;;;;;;5159603;27;20057;-83
2023/10/21 05:10:22;;;;;;;19.02;15.00;;;;;;;;;;5159193;27;20038;-83
2023/10/21 05:12:48;;;;;;;19.00;15.98;;;;;;;;;;5142181;27;20466;-83
2023/10/21 05:15:15;;;;;;;21.92;15.43;;;;;;;;;;5142296;27;20375;-83
2023/10/21 05:17:41;;;;;;;19.25;14.55;;;;;;;;;;5142987;27;20046;-83
2023/10/21 05:20:08;;;;;;;23.55;14.60;;;;;;;;;;5159372;27;20050;-83
2023/10/21 05:22:34;;;;;;;20.23;15.98;;;;;;;;;;5159217;27;20481;-83
2023/10/21 05:25:00;;;;;;;21.00;14.38;;;;;;;;;;5159318;27;20045;-83
2023/10/21 05:27:26;;;;;;;21.77;15.68;;;;;;;;;;5159197;27;20094;-83
2023/10/21 05:29:52;;;;;;;23.70;15.05;;;;;;;;;;5159230;27;20492;-83
2023/10/21 05:32:18;;;;;;;19.73;15.43;;;;;;;;;;5141942;27;20038;-83
2023/10/21 05:34:44;;;;;;;20.17;14.73;;;;;;;;;;5159355;27;20042;-83
2023/10/21 05:37:10;;;;;;;21.83;15.10;;;;;;;;;;5124732;27;20045;-83
2023/10/21 05:39:36;;;;;;;21.58;13.85;;;;;;;;;;5141139;27;20042;-83
2023/10/21 05:42:03;;;;;;;20.17;14.85;;;;;;;;;;5158483;27;20049;-83
2023/10/21 05:44:30;;;;;;;20.90;14.07;;;;;;;;;;5141736;27;20054;-83
2023/10/21 05:46:56;;;;;;;19.02;13.63;;;;;;;;;;5124470;27;20132;-83
2023/10/21 05:49:22;;;;;;;22.80;14.20;;;;;;;;;;5137425;27;20051;-83
2023/10/21 05:51:48;;;;;;;19.05;14.80;;;;;;;;;;5155295;27;20495;-83
2023/10/21 05:54:15;;;;;;;24.70;14.27;;;;;;;;;;5156024;27;20050;-83
2023/10/21 05:56:41;;;;;;;17.23;14.00;;;;;;;;;;5137828;27;20058;-83
2023/10/21 05:59:07;;;;;;;18.52;13.88;;;;;;;;;;5156099;27;20179;-83
2023/10/21 06:01:33;;;;;;;21.17;14.00;;;;;;;;;;5154827;27;20471;-83
2023/10/21 06:04:00;;;;;;;17.38;13.63;;;;;;;;;;5156043;27;20161;-84
2023/10/21 06:06:26;;;;;;;20.73;13.55;;;;;;;;;;5137669;27;20188;-83
2023/10/21 06:08:52;;;;;;;20.60;14.18;;;;;;;;;;5137739;27;20095;-83
2023/10/21 06:11:18;;;;;;;19.90;13.88;;;;;;;;;;5154774;27;20080;-84
2023/10/21 06:13:44;;;;;;;20.63;14.57;;;;;;;;;;5138121;27;20049;-83
2023/10/21 06:16:10;;;;;;;17.40;13.75;;;;;;;;;;5155126;27;20042;-84
2023/10/21 06:18:36;;;;;;;18.10;12.48;;;;;;;;;;5137650;27;20501;-83
2023/10/21 06:21:03;;;;;;;21.88;13.05;;;;;;;;;;5154632;27;20088;-83
2023/10/21 06:23:29;;;;;;;19.15;13.43;;;;;;;;;;5154726;27;20043;-83
2023/10/21 06:25:55;;;;;;;19.67;14.05;;;;;;;;;;5154223;27;20410;-83
2023/10/21 06:28:21;;;;;;;21.65;14.27;;;;;;;;;;5154694;27;20038;-84
2023/10/21 06:30:47;;;;;;;19.02;12.68;;;;;;;;;;5154358;27;20049;-83
2023/10/21 06:33:13;;;;;;;18.95;13.90;;;;;;;;;;5155582;27;20050;-84
2023/10/21 06:35:42;;;;;;;16.60;13.10;;;;;;;;;;5137675;27;20038;-83
2023/10/21 06:38:09;;;;;;;14.82;13.23;;;;;;;;;;5154438;27;20038;-83
2023/10/21 06:40:35;;;;;;;15.25;12.57;;;;;;;;;;5137758;27;20042;-83
2023/10/21 06:43:01;;;;;;;17.13;13.98;;;;;;;;;;5137367;27;20043;-83
2023/10/21 06:45:27;;;;;;;14.48;11.98;;;;;;;;;;5154501;27;20513;-84
2023/10/21 06:47:54;;;;;;;16.20;13.15;;;;;;;;;;5137156;27;20046;-83
2023/10/21 06:50:20;;;;;;;15.95;12.50;;;;;;;;;;5119839;27;20134;-83
2023/10/21 06:52:46;;;;;;;18.83;13.90;;;;;;;;;;5154790;27;20056;-83
2023/10/21 06:55:12;;;;;;;17.48;13.32;;;;;;;;;;5137245;27;20061;-84
2023/10/21 06:57:38;;;;;;;17.80;13.32;;;;;;;;;;5136990;27;20054;-83
2023/10/21 07:00:05;;;;;;;18.15;13.63;;;;;;;;;;5137016;27;20049;-84
2023/10/21 07:02:32;;;;;;;16.05;13.30;;;;;;;;;;5136964;27;20093;-84
2023/10/21 07:04:58;;;;;;;20.88;14.75;;;;;;;;;;5154157;27;20078;-83
2023/10/21 07:07:24;;;;;;;17.20;13.90;;;;;;;;;;5137104;27;20439;-84
2023/10/21 07:09:50;;;;;;;16.95;14.15;;;;;;;;;;5153903;27;20364;-84
2023/10/21 07:12:16;;;;;;;18.70;13.52;;;;;;;;;;5154176;27;20395;-84
2023/10/21 07:14:42;;;;;;;19.92;15.50;;;;;;;;;;5137893;27;20054;-83
2023/10/21 07:17:09;;;;;;;16.77;13.93;;;;;;;;;;5155039;27;20091;-83
2023/10/21 07:19:35;;;;;;;22.08;14.07;;;;;;;;;;5137680;27;20130;-83
2023/10/21 07:22:02;;;;;;;19.15;14.98;;;;;;;;;;5153928;27;20054;-83
2023/10/21 07:24:28;;;;;;;17.52;14.30;;;;;;;;;;5154897;27;20043;-84
2023/10/21 07:26:54;;;;;;;19.92;15.35;;;;;;;;;;5140962;27;20134;-83
2023/10/21 07:29:22;;;;;;;20.45;14.45;;;;;;;;;;5157766;27;20051;-83
2023/10/21 07:31:48;;;;;;;22.05;15.63;;;;;;;;;;5157801;27;20402;-83
2023/10/21 07:34:14;;;;;;;24.30;16.48;;;;;;;;;;5123711;27;20065;-83
2023/10/21 07:36:40;;;;;;;19.20;17.02;;;;;;;;;;5159452;27;20124;-82
2023/10/21 07:39:06;;;;;;;22.98;15.50;;;;;;;;;;5140442;27;20089;-82
2023/10/21 07:41:33;;;;;;;17.88;13.20;;;;;;;;;;5157776;27;20054;-82
2023/10/21 07:44:00;;;;;;;14.30;12.60;;;;;;;;;;5158597;27;20050;-83
2023/10/21 07:46:26;;;;;;;15.82;12.50;;;;;;;;;;5157724;27;20047;-82
2023/10/21 07:48:52;;;;;;;15.38;12.20;;;;;;;;;;5157680;27;20450;-82
2023/10/21 07:51:18;;;;;;;12.02;10.75;;;;;;;;;;5179342;27;20050;-82
2023/10/21 07:53:45;;;;;;;12.50;9.32;;;;;;;;;;5179388;27;20534;-82
2023/10/21 07:56:11;;;;;;;15.05;10.93;;;;;;;;;;5161814;27;20050;-82
2023/10/21 07:58:38;;;;;;;15.02;10.25;;;;;;;;;;5160850;27;20101;-82
2023/10/21 08:01:05;;;;;;;10.75;9.60;;;;;;;;;;5144020;27;20046;-82
2023/10/21 08:03:34;;;;;;;11.65;10.45;;;;;;;;;;5160863;27;20046;-81
2023/10/21 08:06:00;;;;;;;15.15;10.13;;;;;;;;;;5161227;27;20055;-81
2023/10/21 08:08:28;;;;;;;14.27;10.45;;;;;;;;;;5161041;27;20061;-82
2023/10/21 08:10:59;;;;;;;15.00;11.20;;;;;;;;;;5143431;27;20401;-82
2023/10/21 08:13:25;;;;;;;12.85;10.18;;;;;;;;;;5160818;27;20068;-82
2023/10/21 08:15:51;;;;;;;12.40;9.77;;;;;;;;;;5160688;27;20050;-81
2023/10/21 08:18:17;;;;;;;15.15;9.02;;;;;;;;;;5161182;27;20042;-82
2023/10/21 08:20:43;;;;;;;11.65;9.38;;;;;;;;;;5178928;27;20046;-80
2023/10/21 08:23:09;;;;;;;8.57;7.43;;;;;;;;;;5160825;27;20042;-81
2023/10/21 08:25:36;;;;;;;11.80;7.38;;;;;;;;;;5142881;27;20103;-81
2023/10/21 08:28:03;;;;;;;9.18;6.10;;;;;;;;;;5160304;27;20046;-82
2023/10/21 08:30:29;;;;;;;7.03;6.00;;;;;;;;;;5160178;27;20041;-82
2023/10/21 08:32:55;;;;;;;6.03;5.35;;;;;;;;;;5178715;27;20425;-81
2023/10/21 08:35:22;;;;;;;6.88;5.28;;;;;;;;;;5142610;27;20052;-81
2023/10/21 08:37:48;;;;;;;6.25;4.40;;;;;;;;;;5160282;27;20046;-81
2023/10/21 08:40:14;;;;;;;7.57;4.82;;;;;;;;;;5160926;27;20077;-82
2023/10/21 08:42:40;;;;;;;6.57;4.22;;;;;;;;;;5142880;27;20386;-81
2023/10/21 08:45:07;;;;;;;5.15;4.13;;;;;;;;;;5178129;27;20034;-81
2023/10/21 08:47:34;;;;;;;8.32;4.18;;;;;;;;;;5160852;27;20121;-81
2023/10/21 08:50:01;;;;;;;5.93;4.07;;;;;;;;;;5178256;27;20458;-81
2023/10/21 08:52:28;;;;;;;6.72;3.72;;;;;;;;;;5178572;27;20471;-81
2023/10/21 08:54:55;;;;;;;6.93;3.83;;;;;;;;;;5142559;27;20055;-82
2023/10/21 08:57:21;;;;;;;7.60;3.45;;;;;;;;;;5142683;27;20092;-82
2023/10/21 08:59:49;;;;;;;36.03;8.85;;;;;;;;;;5178142;27;20080;-82
2023/10/21 09:02:17;;;;;;;89.05;15.50;;;;;;;;;;5142194;27;20498;-82
2023/10/21 09:04:43;;;;;;;44.90;9.48;;;;;;;;;;5160173;27;20042;-81
2023/10/21 09:07:09;;;;;;;55.75;9.90;;;;;;;;;;5159590;27;20496;-81
2023/10/21 09:09:36;;;;;;;55.60;10.63;;;;;;;;;;5177842;27;20042;-81
2023/10/21 09:12:05;;;;;;;87.40;14.63;;;;;;;;;;5159186;27;20074;-82
2023/10/21 09:14:50;;;;;;;44.88;7.35;;;;;;;;;;5159529;27;20042;-82
2023/10/21 09:17:16;;;;;;;37.88;8.38;;;;;;;;;;5160286;27;20062;-82
2023/10/21 09:19:42;;;;;;;5.47;2.67;;;;;;;;;;5159399;27;20054;-81
2023/10/21 09:22:27;;;;;;;76.80;13.38;;;;;;;;;;5159304;27;20481;-81
2023/10/21 09:24:53;;;;;;;;;;;;;;;;;;5160623;27;20466;-81
2023/10/21 09:27:19;;;;;;;17.73;3.53;;;;;;;;;;5159241;27;19929;-82
2023/10/21 09:29:45;;;;;;;32.53;6.55;;;;;;;;;;5177422;27;20046;-82
2023/10/21 09:32:13;;;;;;;45.55;7.75;;;;;;;;;;5158808;27;20053;-82
2023/10/21 09:34:40;;;;;;;53.90;8.70;;;;;;;;;;5159685;27;20124;-82
2023/10/21 09:37:08;;;;;;;10.73;2.30;;;;;;;;;;5159214;27;20111;-82
2023/10/21 09:39:39;;;;;;;23.52;5.10;;;;;;;;;;5159749;27;20054;-82
2023/10/21 09:42:05;;;;;;;24.60;5.70;;;;;;;;;;5158756;27;20046;-81
2023/10/21 09:44:34;;;;;;;26.35;5.47;;;;;;;;;;5158901;27;20046;-82
2023/10/21 09:47:04;;;;;;;9.65;1.55;;;;;;;;;;5177043;27;20053;-82
2023/10/21 09:49:34;;;;;;;1.55;0.90;;;;;;;;;;5158240;27;20072;-82
2023/10/21 09:52:09;;;;;;;23.85;3.67;;;;;;;;;;5159668;27;20081;-82
2023/10/21 09:54:41;;;;;;;37.25;4.90;;;;;;;;;;5159192;27;20041;-82
2023/10/21 09:57:11;;;;;;;7.90;2.03;;;;;;;;;;5158608;27;20125;-82
2023/10/21 09:59:38;;;;;;;3.47;0.60;;;;;;;;;;5141009;27;20515;-82
2023/10/21 10:02:06;;;;;;;1.42;0.45;;;;;;;;;;5158902;27;20085;-83
2023/10/21 10:04:34;;;;;;;2.25;0.47;;;;;;;;;;5158757;27;20121;-84
2023/10/21 10:07:06;;;;;;;2.15;0.30;;;;;;;;;;5158164;27;20050;-84
2023/10/21 10:09:33;;;;;;;1.98;0.30;;;;;;;;;;5159239;27;20050;-84
2023/10/21 10:12:00;;;;;;;2.28;0.35;;;;;;;;;;5159038;27;20498;-86
2023/10/21 10:14:29;;;;;;;0.65;0.10;;;;;;;;;;5176765;27;20186;-84
2023/10/21 10:16:56;;;;;;;1.08;0.20;;;;;;;;;;5176962;27;20049;-84
2023/10/21 10:19:38;;;;;;;15.85;1.42;;;;;;;;;;5159146;27;20046;-83
2023/10/21 10:22:18;;;;;;;0.52;0.20;;;;;;;;;;5124765;27;20046;-84
2023/10/21 10:25:04;;;;;;;1.42;0.20;;;;;;;;;;5157932;27;20078;-84
2023/10/21 10:27:38;;;;;;;2.63;0.45;;;;;;;;;;5141129;27;20085;-84
2023/10/21 10:30:15;;;;;;;1.23;0.20;;;;;;;;;;5157947;27;20038;-83
2023/10/21 10:32:43;;;;;;;1.17;0.10;;;;;;;;;;5158170;27;20042;-84
2023/10/21 10:35:13;;;;;;;0.47;0.10;;;;;;;;;;5158075;27;20041;-83
2023/10/21 10:37:51;;;;;;;1.17;0.10;;;;;;;;;;5124512;27;20045;-82
2023/10/21 10:40:18;;;;;;;0.47;0.10;;;;;;;;;;5158380;27;20045;-83
2023/10/21 10:42:45;;;;;;;1.13;0.10;;;;;;;;;;5140262;27;20541;-83
2023/10/21 10:45:11;;;;;;;1.98;0.10;;;;;;;;;;5176313;27;20420;-83
2023/10/21 10:47:38;;;;;;;1.35;0.13;;;;;;;;;;5176252;27;20043;-83
2023/10/21 10:50:12;;;;;;;0.50;0.10;;;;;;;;;;5175991;27;20050;-83
2023/10/21 10:52:39;;;;;;;0.22;0.10;;;;;;;;;;5157700;27;20074;-84
2023/10/21 10:55:08;;;;;;;0.80;0.10;;;;;;;;;;5157853;27;20042;-83
2023/10/21 10:57:34;;;;;;;0.85;0.10;;;;;;;;;;5176734;27;20054;-83
2023/10/21 11:00:03;;;;;;;1.30;0.20;;;;;;;;;;5179762;27;20040;-83
2023/10/21 11:02:41;;;;;;;0.73;0.08;;;;;;;;;;5128094;27;20050;-82
2023/10/21 11:05:08;;;;;;;0.30;0.10;;;;;;;;;;5181293;27;20046;-82
2023/10/21 11:07:35;;;;;;;1.05;0.10;;;;;;;;;;5161981;27;20054;-81
2023/10/21 11:10:02;;;;;;;0.90;0.20;;;;;;;;;;5144753;27;20074;-82
2023/10/21 11:12:28;;;;;;;0.30;0.10;;;;;;;;;;5144932;27;20390;-82
2023/10/21 11:14:57;;;;;;;0.82;0.10;;;;;;;;;;5161373;27;20049;-83
2023/10/21 11:17:23;;;;;;;0.85;0.10;;;;;;;;;;5161505;27;20095;-83
2023/10/21 11:19:49;;;;;;;2.28;0.10;;;;;;;;;;5161341;27;20061;-82
2023/10/21 11:22:21;;;;;;;5.20;0.30;;;;;;;;;;5161629;27;20102;-83
2023/10/21 11:24:49;;;;;;;1.42;0.30;;;;;;;;;;5179985;27;20085;-82
2023/10/21 11:27:16;;;;;;;1.88;0.30;;;;;;;;;;5143870;27;20402;-83
2023/10/21 11:29:42;;;;;;;2.03;0.20;;;;;;;;;;5161361;27;20496;-82
2023/10/21 11:32:12;;;;;;;1.70;0.10;;;;;;;;;;5161242;27;20462;-83
2023/10/21 11:34:38;;;;;;;21.45;2.38;;;;;;;;;;5144047;27;20050;-82
2023/10/21 11:37:04;;;;;;;24.58;1.58;;;;;;;;;;5162211;27;20122;-82
2023/10/21 11:39:33;;;;;;;4.63;0.40;;;;;;;;;;5161144;27;20052;-82
2023/10/21 11:41:59;;;;;;;0.40;0.10;;;;;;;;;;5179201;27;20371;-83
2023/10/21 11:44:30;;;;;;;2.80;0.20;;;;;;;;;;5161148;27;20090;-82
2023/10/21 11:47:03;;;;;;;1.60;0.10;;;;;;;;;;5162039;27;20149;-82
2023/10/21 11:49:34;;;;;;;4.83;0.10;;;;;;;;;;5161262;27;20430;-82
2023/10/21 11:52:00;;;;;;;5.03;0.30;;;;;;;;;;5180135;27;20283;-84
2023/10/21 11:54:32;;;;;;;3.08;0.10;;;;;;;;;;5143828;27;20050;-83
2023/10/21 12:37:20;;;;;;;1.10;0.17;;;;;;;;;;5160036;27;20042;-82
2023/10/21 12:39:47;;;;;;;0.57;0.10;;;;;;;;;;5159432;27;20091;-81
2023/10/21 12:42:27;;;;;;;1.83;0.20;;;;;;;;;;5160899;27;20095;-81
2023/10/21 12:45:05;;;;;;;0.88;0.10;;;;;;;;;;5159675;27;20050;-82
2023/10/21 12:47:31;;;;;;;1.02;0.10;;;;;;;;;;5160869;27;20057;-82
2023/10/21 12:49:57;;;;;;;2.25;0.10;;;;;;;;;;5159382;27;20113;-81
2023/10/21 12:52:24;;;;;;;1.73;0.10;;;;;;;;;;5160229;27;20046;-82
2023/10/21 12:54:52;;;;;;;0.85;0.20;;;;;;;;;;5159915;27;20085;-81
2023/10/21 12:57:19;;;;;;;3.67;0.10;;;;;;;;;;5159793;27;20042;-82
2023/10/21 12:59:45;;;;;;;1.35;0.10;;;;;;;;;;5160636;27;20128;-82
2023/10/21 13:02:11;;;;;;;1.40;0.10;;;;;;;;;;5159538;27;20049;-81
2023/10/21 13:04:38;;;;;;;1.50;0.17;;;;;;;;;;5159990;27;20042;-82
2023/10/21 13:07:05;;;;;;;2.45;0.20;;;;;;;;;;5159610;27;20046;-81
2023/10/21 13:09:34;;;;;;;1.65;0.17;;;;;;;;;;5159237;27;20046;-82
2023/10/21 13:12:00;;;;;;;2.38;0.10;;;;;;;;;;5160217;27;20038;-82
2023/10/21 13:14:27;;;;;;;2.65;0.30;;;;;;;;;;5159503;27;20074;-81
2023/10/21 13:16:53;;;;;;;1.55;0.10;;;;;;;;;;5159635;27;20050;-83
2023/10/21 13:19:20;;;;;;;1.95;0.17;;;;;;;;;;5159667;27;20065;-82
2023/10/21 13:21:46;;;;;;;1.63;0.20;;;;;;;;;;5158199;27;20053;-82
2023/10/21 13:24:12;;;;;;;3.20;0.30;;;;;;;;;;5142125;27;20384;-81
2023/10/21 13:26:39;;;;;;;3.30;0.20;;;;;;;;;;5142058;27;20046;-82
2023/10/21 13:29:05;;;;;;;2.63;0.20;;;;;;;;;;5159425;27;20054;-81
2023/10/21 13:31:33;;;;;;;3.33;0.20;;;;;;;;;;5141656;27;20038;-81
2023/10/21 13:34:02;;;;;;;1.40;0.13;;;;;;;;;;5158796;27;20049;-82
2023/10/21 13:36:29;;;;;;;1.35;0.20;;;;;;;;;;5158714;27;20080;-82
2023/10/21 13:38:55;;;;;;;2.83;0.20;;;;;;;;;;5124982;27;20057;-82
2023/10/21 13:41:21;;;;;;;2.13;0.22;;;;;;;;;;5158695;27;20125;-81
2023/10/21 13:43:47;;;;;;;3.80;0.30;;;;;;;;;;5159252;27;20085;-81
2023/10/21 13:46:13;;;;;;;2.63;0.20;;;;;;;;;;5177253;27;20038;-82
2023/10/21 13:48:39;;;;;;;4.80;0.22;;;;;;;;;;5141629;27;20553;-82
2023/10/21 13:51:09;;;;;;;1.77;0.20;;;;;;;;;;5141449;27;20054;-81
2023/10/21 13:53:35;;;;;;;2.13;0.13;;;;;;;;;;5158728;27;20154;-81
2023/10/21 13:56:01;;;;;;;2.00;0.25;;;;;;;;;;5158961;27;20073;-81
2023/10/21 13:58:29;;;;;;;4.00;0.20;;;;;;;;;;5141121;27;20137;-81
2023/10/21 14:00:59;;;;;;;3.15;0.30;;;;;;;;;;5158296;27;20061;-81
2023/10/21 14:03:25;;;;;;;2.47;0.30;;;;;;;;;;5158592;27;20048;-81
2023/10/21 14:05:52;;;;;;;2.30;0.30;;;;;;;;;;5158479;27;20083;-82
2023/10/21 14:08:19;;;;;;;2.53;0.30;;;;;;;;;;5159306;27;20053;-82
2023/10/21 14:10:47;;;;;;;2.45;0.30;;;;;;;;;;5158146;27;20050;-82
2023/10/21 14:13:15;;;;;;;3.20;0.22;;;;;;;;;;5176497;27;20129;-82
2023/10/21 14:15:42;;;;;;;2.90;0.40;;;;;;;;;;5140846;27;20053;-81
2023/10/21 14:18:11;;;;;;;1.77;0.40;;;;;;;;;;5158610;27;20038;-81
2023/10/21 14:20:41;;;;;;;2.25;0.20;;;;;;;;;;5158195;27;20129;-82
2023/10/21 14:23:08;;;;;;;3.22;0.30;;;;;;;;;;5158946;27;20347;-82
2023/10/21 14:25:34;;;;;;;1.20;0.22;;;;;;;;;;5157802;27;20046;-82
2023/10/21 14:28:00;;;;;;;2.03;0.20;;;;;;;;;;5176356;27;20042;-82
2023/10/21 14:30:26;;;;;;;1.02;0.20;;;;;;;;;;5158096;27;20050;-82
2023/10/21 14:32:53;;;;;;;3.05;0.30;;;;;;;;;;5157490;27;20042;-82
2023/10/21 14:35:19;;;;;;;6.88;0.20;;;;;;;;;;5140472;27;20046;-82
2023/10/21 14:37:45;;;;;;;4.55;0.30;;;;;;;;;;5176308;27;20554;-81
2023/10/21 14:40:11;;;;;;;1.90;0.20;;;;;;;;;;5158043;27;20038;-81
2023/10/21 14:42:37;;;;;;;2.72;0.30;;;;;;;;;;5157712;27;20489;-82
2023/10/21 14:45:04;;;;;;;1.80;0.20;;;;;;;;;;5157812;27;20052;-81
2023/10/21 14:47:33;;;;;;;1.98;0.20;;;;;;;;;;5140698;27;20046;-82
2023/10/21 14:50:00;;;;;;;2.88;0.30;;;;;;;;;;5140162;27;20520;-81
2023/10/21 14:52:27;;;;;;;2.30;0.50;;;;;;;;;;5157762;27;20049;-81
2023/10/21 14:54:55;;;;;;;2.10;0.20;;;;;;;;;;5157890;27;20497;-81
2023/10/21 14:57:22;;;;;;;4.10;0.22;;;;;;;;;;5140864;27;20053;-81
2023/10/21 14:59:48;;;;;;;5.03;0.40;;;;;;;;;;5157525;27;20490;-82
2023/10/21 15:02:17;;;;;;;3.53;0.20;;;;;;;;;;5176057;27;20175;-81
2023/10/21 15:04:44;;;;;;;2.15;0.30;;;;;;;;;;5157484;27;20509;-81
2023/10/21 15:07:10;;;;;;;4.88;0.30;;;;;;;;;;5157669;27;20053;-81
2023/10/21 15:09:37;;;;;;;5.10;0.32;;;;;;;;;;5176218;27;20038;-81